createdAt,value
2022-09-20T00:01:33.657Z,24.00
2022-09-20T00:04:05.337Z,24.00
2022-09-20T00:06:33.808Z,24.00
2022-09-20T00:09:02.750Z,24.00
2022-09-20T00:11:33.181Z,24.00
2022-09-20T00:14:02.058Z,23.90
2022-09-20T00:16:39.233Z,23.90
2022-09-20T00:19:07.913Z,23.90
2022-09-20T00:21:37.779Z,23.80
2022-09-20T00:24:06.171Z,23.90
2022-09-20T00:26:33.861Z,23.90
2022-09-20T00:29:01.806Z,23.80
2022-09-20T00:31:29.310Z,23.80
2022-09-20T00:34:16.858Z,23.80
2022-09-20T00:36:45.297Z,23.80
2022-09-20T00:39:14.508Z,23.80
2022-09-20T00:41:42.641Z,23.70
2022-09-20T00:44:47.793Z,23.70
2022-09-20T00:47:36.545Z,23.70
2022-09-20T00:50:14.064Z,23.70
2022-09-20T00:52:45.495Z,23.70
2022-09-20T00:55:16.308Z,23.70
2022-09-20T00:57:44.542Z,23.70
2022-09-20T01:00:13.022Z,23.70
2022-09-20T01:02:46.880Z,23.70
2022-09-20T01:05:15.602Z,23.70
2022-09-20T01:07:44.566Z,23.70
2022-09-20T01:10:11.826Z,23.70
2022-09-20T01:12:40.707Z,23.70
2022-09-20T01:15:09.619Z,23.70
2022-09-20T01:17:41.581Z,23.70
2022-09-20T01:20:18.178Z,23.60
2022-09-20T01:23:00.341Z,23.60
2022-09-20T01:25:58.496Z,23.60
2022-09-20T01:28:27.443Z,23.60
2022-09-20T01:31:09.761Z,23.60
2022-09-20T01:34:00.294Z,23.50
2022-09-20T01:36:43.627Z,23.50
2022-09-20T01:39:43.220Z,23.50
2022-09-20T01:42:12.424Z,23.50
2022-09-20T01:44:42.345Z,23.50
2022-09-20T01:47:21.438Z,23.40
2022-09-20T01:50:07.458Z,23.40
2022-09-20T01:52:49.517Z,23.40
2022-09-20T01:55:16.613Z,23.40
2022-09-20T01:58:17.654Z,23.50
2022-09-20T02:01:21.845Z,23.50
2022-09-20T02:04:03.978Z,23.50
2022-09-20T02:06:53.966Z,23.50
2022-09-20T02:09:31.157Z,23.50
2022-09-20T02:12:21.745Z,23.50
2022-09-20T02:14:51.940Z,23.50
2022-09-20T02:17:34.687Z,23.40
2022-09-20T02:20:11.380Z,23.40
2022-09-20T02:22:43.674Z,23.40
2022-09-20T02:25:35.157Z,23.40
2022-09-20T02:28:32.781Z,23.40
2022-09-20T02:31:21.042Z,23.40
2022-09-20T02:34:27.711Z,23.40
2022-09-20T02:37:32.323Z,23.30
2022-09-20T02:40:24.890Z,23.30
2022-09-20T02:43:16.514Z,23.20
2022-09-20T02:46:00.031Z,23.20
2022-09-20T02:48:53.846Z,23.10
2022-09-20T02:51:31.140Z,23.10
2022-09-20T02:54:16.490Z,23.10
2022-09-20T02:57:01.476Z,23.10
2022-09-20T02:59:47.337Z,23.10
2022-09-20T03:02:36.202Z,23.10
2022-09-20T03:05:18.806Z,23.00
2022-09-20T03:08:04.329Z,23.00
2022-09-20T03:10:49.237Z,22.90
2022-09-20T03:13:16.419Z,22.90
2022-09-20T03:16:26.379Z,22.90
2022-09-20T03:18:56.562Z,22.90
2022-09-20T03:21:42.910Z,22.90
2022-09-20T03:24:34.596Z,22.90
2022-09-20T03:27:52.792Z,22.90
2022-09-20T03:30:46.662Z,22.90
2022-09-20T03:33:40.260Z,22.90
2022-09-20T03:36:34.584Z,22.90
2022-09-20T03:39:20.063Z,22.90
2022-09-20T03:42:18.947Z,22.90
2022-09-20T03:45:23.916Z,22.90
2022-09-20T03:47:57.610Z,22.90
2022-09-20T03:50:42.785Z,22.90
2022-09-20T03:53:40.828Z,22.80
2022-09-20T03:56:20.012Z,22.70
2022-09-20T03:59:02.214Z,22.70
2022-09-20T04:01:48.451Z,22.70
2022-09-20T04:04:53.990Z,22.70
2022-09-20T04:07:24.272Z,22.80
2022-09-20T04:10:20.903Z,22.80
2022-09-20T04:13:25.481Z,22.80
2022-09-20T04:16:23.747Z,22.80
2022-09-20T04:19:32.757Z,22.70
2022-09-20T04:22:02.396Z,22.70
2022-09-20T04:24:44.762Z,22.70
2022-09-20T04:27:21.254Z,22.70
2022-09-20T04:30:07.034Z,22.70
2022-09-20T04:33:05.996Z,22.70
2022-09-20T04:36:08.138Z,22.70
2022-09-20T04:38:35.914Z,22.70
2022-09-20T04:41:28.468Z,22.70
2022-09-20T04:44:14.475Z,22.70
2022-09-20T04:47:00.079Z,22.70
2022-09-20T04:49:50.463Z,22.70
2022-09-20T04:52:43.702Z,22.70
2022-09-20T04:55:24.150Z,22.70
2022-09-20T04:57:54.725Z,22.70
2022-09-20T05:00:35.304Z,22.70
2022-09-20T05:03:34.565Z,22.70
2022-09-20T05:06:07.618Z,22.70
2022-09-20T05:08:58.808Z,22.70
2022-09-20T05:11:47.467Z,22.70
2022-09-20T05:14:33.308Z,22.70
2022-09-20T05:17:21.900Z,22.70
2022-09-20T05:20:26.341Z,22.70
2022-09-20T05:23:08.293Z,22.70
2022-09-20T05:25:56.533Z,22.80
2022-09-20T05:28:51.420Z,22.80
2022-09-20T05:31:46.403Z,22.90
2022-09-20T05:34:43.593Z,23.00
2022-09-20T05:37:28.917Z,23.00
2022-09-20T05:39:59.061Z,23.10
2022-09-20T05:43:00.659Z,23.20
2022-09-20T05:45:48.864Z,23.30
2022-09-20T05:48:38.730Z,23.40
2022-09-20T05:51:24.482Z,23.50
2022-09-20T05:53:56.078Z,23.70
2022-09-20T05:57:02.492Z,23.80
2022-09-20T05:59:47.544Z,23.90
2022-09-20T06:02:17.733Z,24.00
2022-09-20T06:05:22.058Z,24.20
2022-09-20T06:08:19.102Z,24.40
2022-09-20T06:11:07.421Z,24.60
2022-09-20T06:13:34.605Z,24.70
2022-09-20T06:16:04.615Z,24.80
2022-09-20T06:19:04.550Z,25.00
2022-09-20T06:21:42.783Z,25.10
2022-09-20T06:24:31.568Z,25.20
2022-09-20T06:27:04.217Z,25.20
2022-09-20T06:29:35.639Z,25.30
2022-09-20T06:32:05.099Z,25.40
2022-09-20T06:34:33.016Z,25.40
2022-09-20T06:37:31.189Z,25.40
2022-09-20T06:40:22.195Z,25.50
2022-09-20T06:42:49.507Z,25.50
2022-09-20T06:45:16.743Z,25.40
2022-09-20T06:47:43.996Z,25.40
2022-09-20T06:50:20.567Z,25.50
2022-09-20T06:52:47.903Z,25.50
2022-09-20T06:55:29.304Z,25.60
2022-09-20T06:57:59.114Z,25.70
2022-09-20T07:00:26.281Z,25.80
2022-09-20T07:02:54.216Z,25.90
2022-09-20T07:05:22.128Z,26.00
2022-09-20T07:07:49.463Z,26.20
2022-09-20T07:10:17.114Z,26.20
2022-09-20T07:12:44.359Z,26.40
2022-09-20T07:15:12.275Z,26.50
2022-09-20T07:17:39.563Z,26.60
2022-09-20T07:20:07.109Z,26.40
2022-09-20T07:22:34.327Z,26.30
2022-09-20T07:25:02.567Z,26.10
2022-09-20T07:27:29.923Z,26.20
2022-09-20T07:29:57.132Z,26.30
2022-09-20T07:32:24.348Z,26.40
2022-09-20T07:34:51.581Z,26.50
2022-09-20T07:37:19.480Z,26.70
2022-09-20T07:39:46.794Z,26.70
2022-09-20T07:42:14.542Z,26.90
2022-09-20T07:44:43.402Z,26.90
2022-09-20T07:47:11.345Z,27.00
2022-09-20T07:49:38.811Z,27.00
2022-09-20T07:52:05.968Z,27.00
2022-09-20T07:54:33.172Z,27.10
2022-09-20T07:57:00.285Z,27.30
2022-09-20T07:59:27.669Z,27.10
2022-09-20T08:01:55.183Z,27.20
2022-09-20T08:04:22.317Z,27.40
2022-09-20T08:06:49.559Z,27.50
2022-09-20T08:09:16.875Z,27.70
2022-09-20T08:11:44.184Z,27.80
2022-09-20T08:14:16.011Z,27.70
2022-09-20T08:16:45.713Z,27.80
2022-09-20T08:19:27.800Z,28.00
2022-09-20T08:21:55.452Z,28.10
2022-09-20T08:24:22.609Z,28.30
2022-09-20T08:26:49.720Z,28.60
2022-09-20T08:29:17.406Z,28.80
2022-09-20T08:31:44.653Z,28.80
2022-09-20T08:34:14.095Z,28.80
2022-09-20T08:36:44.321Z,28.70
2022-09-20T08:42:11.232Z,28.40
2022-09-20T08:45:00.490Z,28.40
2022-09-20T08:47:57.784Z,28.50
2022-09-20T08:50:26.975Z,28.10
2022-09-20T08:53:00.774Z,28.00
2022-09-20T08:55:36.356Z,28.10
2022-09-20T08:58:08.443Z,28.10
2022-09-20T09:00:37.801Z,28.10
2022-09-20T09:03:12.705Z,28.10
2022-09-20T09:05:52.002Z,28.10
2022-09-20T09:08:21.384Z,27.90
2022-09-20T09:10:54.947Z,27.80
2022-09-20T09:13:51.421Z,27.70
2022-09-20T09:16:27.315Z,27.80
2022-09-20T09:18:57.898Z,27.90
2022-09-20T09:21:30.564Z,27.90
2022-09-20T09:24:09.571Z,28.00
2022-09-20T09:26:43.464Z,28.00
2022-09-20T09:29:17.926Z,28.10
2022-09-20T09:31:47.320Z,28.30
2022-09-20T09:34:35.421Z,28.40
2022-09-20T09:37:02.875Z,28.10
2022-09-20T09:39:32.448Z,28.20
2022-09-20T09:42:01.352Z,28.20
2022-09-20T09:44:33.312Z,28.40
2022-09-20T09:47:01.057Z,28.40
2022-09-20T09:49:36.586Z,28.40
2022-09-20T09:52:24.738Z,28.50
2022-09-20T09:55:03.613Z,28.40
2022-09-20T09:57:45.705Z,28.40
2022-09-20T10:00:22.663Z,28.30
2022-09-20T10:03:17.372Z,28.40
2022-09-20T10:05:53.790Z,28.60
2022-09-20T10:08:29.389Z,28.60
2022-09-20T10:11:12.295Z,28.60
2022-09-20T10:13:50.478Z,28.60
2022-09-20T10:16:55.559Z,28.50
2022-09-20T10:19:25.638Z,28.50
2022-09-20T10:21:58.231Z,28.50
2022-09-20T10:24:53.415Z,28.40
2022-09-20T10:27:53.219Z,28.40
2022-09-20T10:30:25.914Z,28.60
2022-09-20T10:33:10.256Z,28.80
2022-09-20T10:36:01.198Z,29.00
2022-09-20T10:38:49.683Z,29.00
2022-09-20T10:41:48.722Z,28.90
2022-09-20T10:44:19.011Z,29.00
2022-09-20T10:47:21.641Z,29.10
2022-09-20T10:50:10.181Z,29.20
2022-09-20T10:53:12.505Z,29.10
2022-09-20T10:56:08.186Z,29.30
2022-09-20T10:58:54.698Z,29.90
2022-09-20T11:01:56.577Z,30.30
2022-09-20T11:04:32.771Z,30.50
2022-09-20T11:07:29.544Z,30.70
2022-09-20T11:10:08.387Z,31.20
2022-09-20T11:12:48.259Z,31.60
2022-09-20T11:15:26.814Z,32.10
2022-09-20T11:18:03.120Z,32.00
2022-09-20T11:20:37.603Z,31.60
2022-09-20T11:23:14.560Z,31.00
2022-09-20T11:26:13.066Z,31.30
2022-09-20T11:28:54.332Z,31.70
2022-09-20T11:31:43.020Z,31.80
2022-09-20T11:34:40.271Z,32.20
2022-09-20T11:37:09.366Z,32.20
2022-09-20T11:39:56.464Z,32.60
2022-09-20T11:42:31.493Z,32.90
2022-09-20T11:44:58.848Z,32.40
2022-09-20T11:47:53.323Z,32.30
2022-09-20T11:50:45.369Z,32.20
2022-09-20T11:53:36.925Z,31.90
2022-09-20T11:56:12.792Z,32.80
2022-09-20T11:58:52.562Z,33.00
2022-09-20T12:01:28.745Z,32.50
2022-09-20T12:04:34.770Z,32.40
2022-09-20T12:07:18.114Z,33.30
2022-09-20T12:10:25.302Z,33.70
2022-09-20T12:13:00.035Z,33.80
2022-09-20T12:15:40.069Z,33.50
2022-09-20T12:18:26.175Z,33.70
2022-09-20T12:20:56.115Z,33.70
2022-09-20T12:23:41.387Z,33.90
2022-09-20T12:26:22.703Z,34.50
2022-09-20T12:28:51.336Z,34.10
2022-09-20T12:31:26.243Z,33.10
2022-09-20T12:34:15.570Z,33.10
2022-09-20T12:36:43.877Z,33.00
2022-09-20T12:39:16.373Z,33.30
2022-09-20T12:41:52.850Z,34.00
2022-09-20T12:44:35.844Z,34.20
2022-09-20T12:47:12.143Z,34.40
2022-09-20T12:50:06.658Z,34.10
2022-09-20T12:52:58.149Z,34.40
2022-09-20T12:55:43.908Z,34.90
2022-09-20T12:58:14.342Z,34.30
2022-09-20T13:00:57.915Z,34.50
2022-09-20T13:03:48.495Z,34.70
2022-09-20T13:06:16.683Z,34.60
2022-09-20T13:09:01.544Z,34.60
2022-09-20T13:11:41.792Z,34.60
2022-09-20T13:14:44.701Z,33.80
2022-09-20T13:17:30.010Z,34.00
2022-09-20T13:19:58.143Z,34.30
2022-09-20T13:22:45.457Z,34.60
2022-09-20T13:25:17.619Z,34.20
2022-09-20T13:27:54.295Z,34.20
2022-09-20T13:30:24.439Z,33.40
2022-09-20T13:32:52.839Z,33.10
2022-09-20T13:35:32.565Z,33.30
2022-09-20T13:38:06.966Z,33.90
2022-09-20T13:40:38.530Z,33.50
2022-09-20T13:43:24.955Z,32.40
2022-09-20T13:46:09.495Z,31.60
2022-09-20T13:48:36.944Z,30.40
2022-09-20T13:51:04.569Z,29.60
2022-09-20T13:53:46.854Z,29.30
2022-09-20T13:56:20.309Z,29.30
2022-09-20T13:58:49.193Z,29.10
2022-09-20T14:01:31.586Z,28.70
2022-09-20T14:04:14.818Z,28.50
2022-09-20T14:06:42.648Z,28.40
2022-09-20T14:09:23.842Z,28.30
2022-09-20T14:11:51.347Z,28.10
2022-09-20T14:14:22.166Z,28.10
2022-09-20T14:16:51.802Z,28.10
2022-09-20T14:19:21.591Z,28.20
2022-09-20T14:21:49.621Z,28.10
2022-09-20T14:24:17.662Z,27.80
2022-09-20T14:27:18.205Z,27.80
2022-09-20T14:29:56.424Z,27.90
2022-09-20T14:32:37.830Z,27.80
2022-09-20T14:35:23.881Z,27.80
2022-09-20T14:37:55.086Z,27.70
2022-09-20T14:40:31.611Z,27.70
2022-09-20T14:43:01.360Z,27.70
2022-09-20T14:45:34.083Z,27.60
2022-09-20T14:48:10.776Z,27.60
2022-09-20T14:50:43.768Z,27.50
2022-09-20T14:53:13.627Z,27.60
2022-09-20T14:56:01.886Z,27.50
2022-09-20T14:58:29.298Z,27.40
2022-09-20T15:01:01.363Z,27.40
2022-09-20T15:03:31.148Z,27.30
2022-09-20T15:05:58.716Z,27.30
2022-09-20T15:08:27.133Z,27.40
2022-09-20T15:10:54.935Z,27.40
2022-09-20T15:13:22.146Z,27.30
2022-09-20T15:15:52.853Z,27.30
2022-09-20T15:18:30.404Z,27.30
2022-09-20T15:20:57.611Z,27.30
2022-09-20T15:23:24.683Z,27.30
2022-09-20T15:25:53.640Z,27.20
2022-09-20T15:28:21.378Z,27.20
2022-09-20T15:30:50.635Z,27.30
2022-09-20T15:33:19.707Z,27.30
2022-09-20T15:35:47.814Z,27.30
2022-09-20T15:38:18.022Z,27.40
2022-09-20T15:40:48.110Z,27.40
2022-09-20T15:43:24.025Z,27.50
2022-09-20T15:46:01.269Z,27.50
2022-09-20T15:48:30.787Z,27.50
2022-09-20T15:51:11.455Z,27.50
2022-09-20T15:53:40.374Z,27.40
2022-09-20T15:56:35.451Z,27.30
2022-09-20T15:59:05.310Z,27.40
2022-09-20T16:01:40.823Z,27.30
2022-09-20T16:04:13.032Z,27.30
2022-09-20T16:06:42.401Z,27.20
2022-09-20T16:09:09.716Z,27.20
2022-09-20T16:11:37.568Z,27.20
2022-09-20T16:14:05.255Z,27.00
2022-09-20T16:16:38.934Z,26.90
2022-09-20T16:19:19.814Z,26.80
2022-09-20T16:21:53.596Z,26.70
2022-09-20T16:24:34.703Z,26.80
2022-09-20T16:27:04.647Z,26.80
2022-09-20T16:29:32.154Z,26.80
2022-09-20T16:32:00.594Z,26.80
2022-09-20T16:34:35.450Z,26.80
2022-09-20T16:37:16.883Z,26.70
2022-09-20T16:39:44.468Z,26.60
2022-09-20T16:42:13.430Z,26.60
2022-09-20T16:44:43.145Z,26.70
2022-09-20T16:47:16.527Z,26.60
2022-09-20T16:49:44.242Z,26.50
2022-09-20T16:52:11.625Z,26.50
2022-09-20T16:54:39.151Z,26.40
2022-09-20T16:57:06.745Z,26.30
2022-09-20T16:59:33.974Z,26.20
2022-09-20T17:02:01.159Z,26.10
2022-09-20T17:04:28.471Z,26.10
2022-09-20T17:06:55.736Z,26.00
2022-09-20T17:09:23.086Z,26.10
2022-09-20T17:11:51.456Z,26.00
2022-09-20T17:14:20.612Z,26.00
2022-09-20T17:16:49.340Z,26.00
2022-09-20T17:19:21.972Z,26.00
2022-09-20T17:21:51.277Z,25.90
2022-09-20T17:24:20.609Z,26.00
2022-09-20T17:26:48.790Z,26.00
2022-09-20T17:29:17.680Z,26.00
2022-09-20T17:31:53.899Z,26.00
2022-09-20T17:34:22.977Z,26.10
2022-09-20T17:36:50.922Z,26.00
2022-09-20T17:39:18.818Z,26.00
2022-09-20T17:41:48.122Z,26.00
2022-09-20T17:44:16.322Z,26.00
2022-09-20T17:46:49.546Z,25.90
2022-09-20T17:49:22.283Z,25.90
2022-09-20T17:51:54.565Z,25.90
2022-09-20T17:54:23.521Z,25.90
2022-09-20T17:56:52.215Z,25.90
2022-09-20T17:59:20.577Z,25.90
2022-09-20T18:01:50.118Z,25.80
2022-09-20T18:04:18.383Z,25.80
2022-09-20T18:06:47.685Z,25.80
2022-09-20T18:09:17.617Z,25.80
2022-09-20T18:11:49.153Z,25.70
2022-09-20T18:14:21.638Z,25.70
2022-09-20T18:16:55.545Z,25.70
2022-09-20T18:19:22.970Z,25.70
2022-09-20T18:21:50.767Z,25.60
2022-09-20T18:24:18.131Z,25.60
2022-09-20T18:26:45.400Z,25.60
2022-09-20T18:29:16.762Z,25.60
2022-09-20T18:31:48.761Z,25.60
2022-09-20T18:34:19.224Z,25.60
2022-09-20T18:36:55.195Z,25.60
2022-09-20T18:39:28.128Z,25.60
2022-09-20T18:41:58.215Z,25.60
2022-09-20T18:44:26.500Z,25.70
2022-09-20T18:46:55.249Z,25.70
2022-09-20T18:49:23.197Z,25.70
2022-09-20T18:51:50.698Z,25.70
2022-09-20T18:54:19.147Z,25.70
2022-09-20T18:56:48.320Z,25.70
2022-09-20T18:59:19.182Z,25.70
2022-09-20T19:01:56.452Z,25.70
2022-09-20T19:04:52.097Z,25.60
2022-09-20T19:07:28.616Z,25.60
2022-09-20T19:10:16.741Z,25.50
2022-09-20T19:13:06.578Z,25.50
2022-09-20T19:16:00.768Z,25.40
2022-09-20T19:18:49.592Z,25.40
2022-09-20T19:21:25.800Z,25.40
2022-09-20T19:24:07.050Z,25.40
2022-09-20T19:26:38.848Z,25.30
2022-09-20T19:29:20.143Z,25.30
2022-09-20T19:31:53.895Z,25.30
2022-09-20T19:34:27.045Z,25.30
2022-09-20T19:37:08.682Z,25.30
2022-09-20T19:40:00.642Z,25.30
2022-09-20T19:42:28.811Z,25.30
2022-09-20T19:45:19.449Z,25.30
2022-09-20T19:47:58.972Z,25.30
2022-09-20T19:50:48.844Z,25.30
2022-09-20T19:53:18.115Z,25.30
2022-09-20T19:55:52.319Z,25.30
2022-09-20T19:58:23.664Z,25.20
2022-09-20T20:00:52.706Z,25.20
2022-09-20T20:03:20.326Z,25.20
2022-09-20T20:05:58.849Z,25.10
2022-09-20T20:08:58.938Z,25.10
2022-09-20T20:12:01.361Z,25.00
2022-09-20T20:14:44.129Z,25.10
2022-09-20T20:17:33.170Z,25.20
2022-09-20T20:20:38.502Z,25.30
2022-09-20T20:23:29.168Z,25.20
2022-09-20T20:26:13.770Z,25.10
2022-09-20T20:28:41.148Z,25.10
2022-09-20T20:31:12.436Z,25.10
2022-09-20T20:33:40.344Z,25.00
2022-09-20T20:36:10.110Z,25.00
2022-09-20T20:38:38.422Z,25.00
2022-09-20T20:41:11.686Z,25.00
2022-09-20T20:43:43.522Z,25.00
2022-09-20T20:46:14.387Z,25.10
2022-09-20T20:48:42.486Z,25.00
2022-09-20T20:51:27.366Z,25.00
2022-09-20T20:53:55.413Z,25.00
2022-09-20T20:56:26.434Z,25.00
2022-09-20T20:58:53.931Z,25.00
2022-09-20T21:01:32.151Z,25.10
2022-09-20T21:04:01.241Z,25.10
2022-09-20T21:06:30.734Z,25.10
2022-09-20T21:08:58.792Z,25.10
2022-09-20T21:11:29.664Z,25.10
2022-09-20T21:13:59.333Z,25.10
2022-09-20T21:16:35.761Z,25.10
2022-09-20T21:19:05.024Z,25.10
2022-09-20T21:21:35.413Z,25.00
2022-09-20T21:24:05.726Z,24.90
2022-09-20T21:26:34.648Z,24.90
2022-09-20T21:29:21.490Z,24.90
2022-09-20T21:31:48.739Z,24.80
2022-09-20T21:34:16.815Z,24.80
2022-09-20T21:36:44.965Z,24.80
2022-09-20T21:39:12.611Z,24.70
2022-09-20T21:41:40.655Z,24.80
2022-09-20T21:44:12.354Z,24.70
2022-09-20T21:46:41.411Z,24.70
2022-09-20T21:49:11.255Z,24.60
2022-09-20T21:51:41.542Z,24.60
2022-09-20T21:54:09.278Z,24.60
2022-09-20T21:56:38.327Z,24.60
2022-09-20T21:59:07.738Z,24.50
2022-09-20T22:01:37.776Z,24.50
2022-09-20T22:04:07.328Z,24.50
2022-09-20T22:06:38.078Z,24.50
2022-09-20T22:09:13.736Z,24.50
2022-09-20T22:11:46.321Z,24.50
2022-09-20T22:14:15.827Z,24.50
2022-09-20T22:16:44.846Z,24.40
2022-09-20T22:19:15.139Z,24.40
2022-09-20T22:21:51.543Z,24.40
2022-09-20T22:24:18.818Z,24.30
2022-09-20T22:26:54.680Z,24.40
2022-09-20T22:29:22.286Z,24.40
2022-09-20T22:31:50.272Z,24.40
2022-09-20T22:34:21.861Z,24.40
2022-09-20T22:36:49.346Z,24.40
2022-09-20T22:39:17.171Z,24.40
2022-09-20T22:41:45.017Z,24.40
2022-09-20T22:44:12.304Z,24.40
2022-09-20T22:46:40.220Z,24.40
2022-09-20T22:49:08.658Z,24.40
2022-09-20T22:51:36.513Z,24.40
2022-09-20T22:54:09.391Z,24.40
2022-09-20T22:56:37.571Z,24.30
2022-09-20T22:59:07.692Z,24.30
2022-09-20T23:01:43.572Z,24.30
2022-09-20T23:04:13.492Z,24.30
2022-09-20T23:06:55.243Z,24.30
2022-09-20T23:09:26.487Z,24.30
2022-09-20T23:11:53.651Z,24.30
2022-09-20T23:14:22.963Z,24.30
2022-09-20T23:16:50.414Z,24.30
2022-09-20T23:19:18.121Z,24.30
2022-09-20T23:21:45.486Z,24.40
2022-09-20T23:24:14.275Z,24.50
2022-09-20T23:26:42.161Z,24.50
2022-09-20T23:29:15.130Z,24.50
2022-09-20T23:31:46.201Z,24.50
2022-09-20T23:34:14.648Z,24.50
2022-09-20T23:36:42.730Z,24.50
2022-09-20T23:39:11.891Z,24.60
2022-09-20T23:41:40.472Z,24.60
2022-09-20T23:44:10.046Z,24.50
2022-09-20T23:46:38.455Z,24.50
2022-09-20T23:49:06.859Z,24.50
2022-09-20T23:51:35.691Z,24.50
2022-09-20T23:54:08.817Z,24.40
2022-09-20T23:56:37.642Z,24.40
2022-09-20T23:59:07.739Z,24.40
